sensor_id;sensor_type;location;lat;lon;timestamp;pressure;altitude;pressure_sealevel;temperature;humidity
56334;BME280;42240;53.626;55.886;2024-03-07T00:01:04;78696.91;;;-145.10;71.92
56334;BME280;42240;53.626;55.886;2024-03-07T00:02:38;78734.50;;;-145.10;73.00
56334;BME280;42240;53.626;55.886;2024-03-07T00:04:14;78783.94;;;-145.10;73.43
56334;BME280;42240;53.626;55.886;2024-03-07T00:05:49;78677.13;;;-145.10;72.88
56334;BME280;42240;53.626;55.886;2024-03-07T00:07:23;78669.19;;;-145.10;72.35
56334;BME280;42240;53.626;55.886;2024-03-07T00:09:03;78700.84;;;-145.10;72.30
56334;BME280;42240;53.626;55.886;2024-03-07T00:10:37;78655.34;;;-145.10;72.32
56334;BME280;42240;53.626;55.886;2024-03-07T00:12:12;78665.25;;;-145.10;71.50
56334;BME280;42240;53.626;55.886;2024-03-07T00:13:46;78756.25;;;-145.10;70.99
56334;BME280;42240;53.626;55.886;2024-03-07T00:15:20;78613.81;;;-145.10;69.86
56334;BME280;42240;53.626;55.886;2024-03-07T00:17:00;78584.13;;;-145.10;69.52
56334;BME280;42240;53.626;55.886;2024-03-07T00:18:38;78601.94;;;-145.10;69.72
56334;BME280;42240;53.626;55.886;2024-03-07T00:20:17;78586.09;;;-145.10;68.83
56334;BME280;42240;53.626;55.886;2024-03-07T00:21:53;78613.81;;;-145.10;68.32
56334;BME280;42240;53.626;55.886;2024-03-07T00:23:28;78613.81;;;-145.10;68.52
56334;BME280;42240;53.626;55.886;2024-03-07T00:25:11;78578.19;;;-145.10;68.10
56334;BME280;42240;53.626;55.886;2024-03-07T00:26:47;78594.03;;;-145.10;67.55
56334;BME280;42240;53.626;55.886;2024-03-07T00:28:23;78580.16;;;-145.10;66.04
56334;BME280;42240;53.626;55.886;2024-03-07T00:29:57;78562.38;;;-145.10;65.94
56334;BME280;42240;53.626;55.886;2024-03-07T00:31:35;78568.31;;;-145.10;65.37
56334;BME280;42240;53.626;55.886;2024-03-07T00:33:12;78550.50;;;-145.10;64.54
56334;BME280;42240;53.626;55.886;2024-03-07T00:34:49;78544.56;;;-145.10;64.90
56334;BME280;42240;53.626;55.886;2024-03-07T00:36:26;78562.38;;;-145.10;63.95
56334;BME280;42240;53.626;55.886;2024-03-07T00:37:59;78574.22;;;-145.10;64.16
56334;BME280;42240;53.626;55.886;2024-03-07T00:39:34;78588.09;;;-145.10;64.33
56334;BME280;42240;53.626;55.886;2024-03-07T00:41:10;78592.03;;;-145.10;64.54
56334;BME280;42240;53.626;55.886;2024-03-07T00:42:47;78586.09;;;-145.10;65.25
56334;BME280;42240;53.626;55.886;2024-03-07T00:44:20;78576.22;;;-145.10;65.31
56334;BME280;42240;53.626;55.886;2024-03-07T00:45:54;78596.00;;;-145.10;65.72
56334;BME280;42240;53.626;55.886;2024-03-07T00:47:32;78578.19;;;-145.10;65.77
56334;BME280;42240;53.626;55.886;2024-03-07T00:49:07;78570.28;;;-145.10;65.82
56334;BME280;42240;53.626;55.886;2024-03-07T00:50:41;78582.16;;;-145.10;66.17
56334;BME280;42240;53.626;55.886;2024-03-07T00:52:16;78568.31;;;-145.10;66.23
56334;BME280;42240;53.626;55.886;2024-03-07T00:53:52;78550.50;;;-145.10;66.28
56334;BME280;42240;53.626;55.886;2024-03-07T00:55:25;78562.38;;;-145.10;66.31
56334;BME280;42240;53.626;55.886;2024-03-07T00:57:00;78526.75;;;-145.10;65.18
56334;BME280;42240;53.626;55.886;2024-03-07T00:58:34;78518.84;;;-145.10;64.22
56334;BME280;42240;53.626;55.886;2024-03-07T01:00:13;78526.75;;;-145.10;63.14
56334;BME280;42240;53.626;55.886;2024-03-07T01:01:48;78520.81;;;-145.10;63.03
56334;BME280;42240;53.626;55.886;2024-03-07T01:03:24;78530.72;;;-145.10;62.70
56334;BME280;42240;53.626;55.886;2024-03-07T01:04:58;78512.91;;;-145.10;62.72
56334;BME280;42240;53.626;55.886;2024-03-07T01:06:36;78485.22;;;-145.10;62.85
56334;BME280;42240;53.626;55.886;2024-03-07T01:08:10;78491.16;;;-145.10;62.08
56334;BME280;42240;53.626;55.886;2024-03-07T01:09:44;78518.84;;;-145.10;61.75
56334;BME280;42240;53.626;55.886;2024-03-07T01:11:18;78556.44;;;-145.10;62.64
56334;BME280;42240;53.626;55.886;2024-03-07T01:12:55;78550.50;;;-145.10;62.69
56334;BME280;42240;53.626;55.886;2024-03-07T01:14:33;78528.72;;;-145.10;62.34
56334;BME280;42240;53.626;55.886;2024-03-07T01:16:08;78534.66;;;-145.10;62.25
56334;BME280;42240;53.626;55.886;2024-03-07T01:17:42;78556.44;;;-145.10;62.65
56334;BME280;42240;53.626;55.886;2024-03-07T01:19:15;78538.63;;;-145.10;63.12
56334;BME280;42240;53.626;55.886;2024-03-07T01:20:50;78506.97;;;-145.10;62.64
56334;BME280;42240;53.626;55.886;2024-03-07T01:22:23;78649.41;;;-145.10;62.15
56334;BME280;42240;53.626;55.886;2024-03-07T01:23:57;78497.06;;;-145.10;61.40
56334;BME280;42240;53.626;55.886;2024-03-07T01:25:32;78518.84;;;-145.10;61.22
56334;BME280;42240;53.626;55.886;2024-03-07T01:27:07;78562.38;;;-145.10;63.32
56334;BME280;42240;53.626;55.886;2024-03-07T01:28:40;78497.06;;;-145.10;63.62
56334;BME280;42240;53.626;55.886;2024-03-07T01:30:14;78497.06;;;-145.10;62.80
56334;BME280;42240;53.626;55.886;2024-03-07T01:31:48;78467.41;;;-145.10;62.09
56334;BME280;42240;53.626;55.886;2024-03-07T01:33:23;78493.13;;;-145.10;62.23
56334;BME280;42240;53.626;55.886;2024-03-07T01:34:57;78532.69;;;-145.10;63.52
56334;BME280;42240;53.626;55.886;2024-03-07T01:36:30;78564.34;;;-145.10;64.92
56334;BME280;42240;53.626;55.886;2024-03-07T01:38:07;78538.63;;;-145.10;66.23
56334;BME280;42240;53.626;55.886;2024-03-07T01:39:44;78514.88;;;-145.10;66.61
56334;BME280;42240;53.626;55.886;2024-03-07T01:41:18;78479.28;;;-145.10;65.61
56334;BME280;42240;53.626;55.886;2024-03-07T01:42:55;78495.09;;;-145.10;65.07
56334;BME280;42240;53.626;55.886;2024-03-07T01:44:29;78508.94;;;-145.10;65.90
56334;BME280;42240;53.626;55.886;2024-03-07T01:46:06;78510.94;;;-145.10;66.09
56334;BME280;42240;53.626;55.886;2024-03-07T01:47:40;78514.88;;;-145.10;66.56
56334;BME280;42240;53.626;55.886;2024-03-07T01:49:18;78459.50;;;-145.10;67.00
56334;BME280;42240;53.626;55.886;2024-03-07T01:50:59;78453.56;;;-145.10;65.55
56334;BME280;42240;53.626;55.886;2024-03-07T01:52:33;78467.41;;;-145.10;64.97
56334;BME280;42240;53.626;55.886;2024-03-07T01:54:08;78479.28;;;-145.10;65.37
56334;BME280;42240;53.626;55.886;2024-03-07T01:55:44;78475.31;;;-145.10;65.74
56334;BME280;42240;53.626;55.886;2024-03-07T01:57:24;78453.56;;;-145.10;66.34
56334;BME280;42240;53.626;55.886;2024-03-07T01:59:01;78459.50;;;-145.10;66.19
56334;BME280;42240;53.626;55.886;2024-03-07T02:00:35;78465.44;;;-145.10;65.66
56334;BME280;42240;53.626;55.886;2024-03-07T02:02:09;78471.34;;;-145.10;65.22
56334;BME280;42240;53.626;55.886;2024-03-07T02:03:43;78485.22;;;-145.10;65.33
56334;BME280;42240;53.626;55.886;2024-03-07T02:05:21;78467.41;;;-145.10;65.10
56334;BME280;42240;53.626;55.886;2024-03-07T02:06:56;78457.50;;;-145.10;65.16
56334;BME280;42240;53.626;55.886;2024-03-07T02:08:34;78467.41;;;-145.10;64.88
56334;BME280;42240;53.626;55.886;2024-03-07T02:10:08;78459.50;;;-145.10;64.36
56334;BME280;42240;53.626;55.886;2024-03-07T02:11:43;78514.88;;;-145.10;64.68
56334;BME280;42240;53.626;55.886;2024-03-07T02:13:17;78518.84;;;-145.10;64.91
56334;BME280;42240;53.626;55.886;2024-03-07T02:14:51;78512.91;;;-145.10;64.33
56334;BME280;42240;53.626;55.886;2024-03-07T02:16:25;78560.38;;;-145.10;64.62
56334;BME280;42240;53.626;55.886;2024-03-07T02:18:00;78554.44;;;-145.10;64.52
56334;BME280;42240;53.626;55.886;2024-03-07T02:19:35;78578.19;;;-145.10;65.68
56334;BME280;42240;53.626;55.886;2024-03-07T02:21:08;78576.22;;;-145.10;66.20
56334;BME280;42240;53.626;55.886;2024-03-07T02:22:42;78633.59;;;-145.10;67.56
56334;BME280;42240;53.626;55.886;2024-03-07T02:24:18;78627.66;;;-145.10;69.45
56334;BME280;42240;53.626;55.886;2024-03-07T02:25:52;78609.84;;;-145.10;69.87
56334;BME280;42240;53.626;55.886;2024-03-07T02:27:26;78677.13;;;-145.10;69.53
56334;BME280;42240;53.626;55.886;2024-03-07T02:29:00;78633.59;;;-145.10;70.38
56334;BME280;42240;53.626;55.886;2024-03-07T02:30:34;78621.72;;;-145.10;70.37
56334;BME280;42240;53.626;55.886;2024-03-07T02:32:08;78681.06;;;-145.10;69.78
56334;BME280;42240;53.626;55.886;2024-03-07T02:33:46;78631.59;;;-145.10;69.58
56334;BME280;42240;53.626;55.886;2024-03-07T02:35:21;78663.25;;;-145.10;69.75
56334;BME280;42240;53.626;55.886;2024-03-07T02:36:58;78649.41;;;-145.10;69.15
56334;BME280;42240;53.626;55.886;2024-03-07T02:38:37;78639.53;;;-145.10;68.89
56334;BME280;42240;53.626;55.886;2024-03-07T02:40:13;78649.41;;;-145.10;67.96
56334;BME280;42240;53.626;55.886;2024-03-07T02:41:47;78671.19;;;-145.10;68.51
56334;BME280;42240;53.626;55.886;2024-03-07T02:43:22;78772.06;;;-145.10;69.86
56334;BME280;42240;53.626;55.886;2024-03-07T02:44:55;78700.84;;;-145.10;69.74
56334;BME280;42240;53.626;55.886;2024-03-07T02:46:29;78690.97;;;-145.10;68.81
56334;BME280;42240;53.626;55.886;2024-03-07T02:48:05;78677.13;;;-145.10;68.39
56334;BME280;42240;53.626;55.886;2024-03-07T02:49:46;78728.56;;;-145.10;69.62
56334;BME280;42240;53.626;55.886;2024-03-07T02:51:19;78712.72;;;-145.10;71.75
56334;BME280;42240;53.626;55.886;2024-03-07T02:53:04;78710.75;;;-145.10;73.49
56334;BME280;42240;53.626;55.886;2024-03-07T02:54:38;78706.78;;;-145.10;73.49
56334;BME280;42240;53.626;55.886;2024-03-07T02:56:14;78681.06;;;-145.10;73.82
56334;BME280;42240;53.626;55.886;2024-03-07T02:57:51;78687.00;;;-145.10;73.83
56334;BME280;42240;53.626;55.886;2024-03-07T02:59:32;78655.34;;;-145.10;74.74
56334;BME280;42240;53.626;55.886;2024-03-07T03:01:11;78582.16;;;-145.10;74.45
56334;BME280;42240;53.626;55.886;2024-03-07T03:02:46;78623.69;;;-145.10;72.49
56334;BME280;42240;53.626;55.886;2024-03-07T03:04:25;78453.56;;;-145.10;68.89
56334;BME280;42240;53.626;55.886;2024-03-07T03:05:59;78364.53;;;-145.10;65.11
56334;BME280;42240;53.626;55.886;2024-03-07T03:07:38;78342.78;;;-145.10;61.58
56334;BME280;42240;53.626;55.886;2024-03-07T03:09:11;78350.69;;;-145.10;59.90
56334;BME280;42240;53.626;55.886;2024-03-07T03:10:50;78334.84;;;-145.10;58.44
56334;BME280;42240;53.626;55.886;2024-03-07T03:12:31;78265.63;;;-145.10;57.06
56334;BME280;42240;53.626;55.886;2024-03-07T03:14:05;78269.56;;;-145.10;56.22
56334;BME280;42240;53.626;55.886;2024-03-07T03:15:39;78202.31;;;-145.10;55.15
56334;BME280;42240;53.626;55.886;2024-03-07T03:17:12;78247.81;;;-145.10;54.71
56334;BME280;42240;53.626;55.886;2024-03-07T03:18:49;78334.84;;;-145.10;54.75
56334;BME280;42240;53.626;55.886;2024-03-07T03:20:22;78400.13;;;-145.10;55.32
56334;BME280;42240;53.626;55.886;2024-03-07T03:21:59;78433.78;;;-145.10;56.67
56334;BME280;42240;53.626;55.886;2024-03-07T03:23:33;78479.28;;;-145.10;58.09
56334;BME280;42240;53.626;55.886;2024-03-07T03:25:08;78479.28;;;-145.10;59.63
56334;BME280;42240;53.626;55.886;2024-03-07T03:26:44;78487.19;;;-145.10;60.93
56334;BME280;42240;53.626;55.886;2024-03-07T03:28:18;78487.19;;;-145.10;61.81
56334;BME280;42240;53.626;55.886;2024-03-07T03:29:59;78501.03;;;-145.10;62.32
56334;BME280;42240;53.626;55.886;2024-03-07T03:31:33;78506.97;;;-145.10;63.24
56334;BME280;42240;53.626;55.886;2024-03-07T03:33:08;78506.97;;;-145.10;63.56
56334;BME280;42240;53.626;55.886;2024-03-07T03:34:43;78453.56;;;-145.10;63.67
56334;BME280;42240;53.626;55.886;2024-03-07T03:36:17;78489.16;;;-145.10;63.73
56334;BME280;42240;53.626;55.886;2024-03-07T03:37:51;78475.31;;;-145.10;63.85
56334;BME280;42240;53.626;55.886;2024-03-07T03:39:25;78475.31;;;-145.10;64.06
56334;BME280;42240;53.626;55.886;2024-03-07T03:40:59;78453.56;;;-145.10;63.58
56334;BME280;42240;53.626;55.886;2024-03-07T03:42:33;78455.53;;;-145.10;63.12
56334;BME280;42240;53.626;55.886;2024-03-07T03:44:10;78435.75;;;-145.10;62.92
56334;BME280;42240;53.626;55.886;2024-03-07T03:45:44;78451.56;;;-145.10;62.37
56334;BME280;42240;53.626;55.886;2024-03-07T03:47:21;78431.78;;;-145.10;62.74
56334;BME280;42240;53.626;55.886;2024-03-07T03:48:58;78429.81;;;-145.10;61.43
56334;BME280;42240;53.626;55.886;2024-03-07T03:50:31;78396.19;;;-145.10;61.47
56334;BME280;42240;53.626;55.886;2024-03-07T03:52:05;78439.72;;;-145.10;60.79
56334;BME280;42240;53.626;55.886;2024-03-07T03:53:38;78281.44;;;-145.10;59.27
56334;BME280;42240;53.626;55.886;2024-03-07T03:55:18;78115.28;;;-145.10;56.45
56334;BME280;42240;53.626;55.886;2024-03-07T03:56:54;78067.81;;;-145.10;54.25
56334;BME280;42240;53.626;55.886;2024-03-07T03:58:29;78103.41;;;-145.10;52.82
56334;BME280;42240;53.626;55.886;2024-03-07T04:00:07;77986.69;;;-145.10;52.55
56334;BME280;42240;53.626;55.886;2024-03-07T04:01:45;77959.00;;;-145.10;50.69
56334;BME280;42240;53.626;55.886;2024-03-07T04:03:19;77820.53;;;-145.10;49.95
56334;BME280;42240;53.626;55.886;2024-03-07T04:04:56;77761.22;;;-145.10;48.28
56334;BME280;42240;53.626;55.886;2024-03-07T04:06:30;77680.09;;;-145.10;47.01
56334;BME280;42240;53.626;55.886;2024-03-07T04:08:04;77632.63;;;-145.10;46.11
56334;BME280;42240;53.626;55.886;2024-03-07T04:09:39;77595.06;;;-145.10;44.72
56334;BME280;42240;53.626;55.886;2024-03-07T04:11:13;77610.88;;;-145.10;44.56
56334;BME280;42240;53.626;55.886;2024-03-07T04:12:47;77517.91;;;-145.10;43.85
56334;BME280;42240;53.626;55.886;2024-03-07T04:14:24;77442.75;;;-145.10;43.17
56334;BME280;42240;53.626;55.886;2024-03-07T04:15:58;77512.00;;;-145.10;42.18
56334;BME280;42240;53.626;55.886;2024-03-07T04:17:33;77438.81;;;-145.10;41.89
56334;BME280;42240;53.626;55.886;2024-03-07T04:19:08;77371.56;;;-145.10;41.32
56334;BME280;42240;53.626;55.886;2024-03-07T04:20:42;77426.94;;;-145.10;41.95
56334;BME280;42240;53.626;55.886;2024-03-07T04:22:20;77349.81;;;-145.10;41.20
56334;BME280;42240;53.626;55.886;2024-03-07T04:23:57;77343.88;;;-145.10;40.97
56334;BME280;42240;53.626;55.886;2024-03-07T04:25:31;77288.50;;;-145.10;40.79
56334;BME280;42240;53.626;55.886;2024-03-07T04:27:07;77199.50;;;-145.10;40.08
56334;BME280;42240;53.626;55.886;2024-03-07T04:28:40;77199.50;;;-145.10;39.39
56334;BME280;42240;53.626;55.886;2024-03-07T04:30:14;77076.88;;;-145.10;39.52
56334;BME280;42240;53.626;55.886;2024-03-07T04:31:50;76987.88;;;-145.10;38.75
56334;BME280;42240;53.626;55.886;2024-03-07T04:33:26;77047.22;;;-145.10;38.47
56334;BME280;42240;53.626;55.886;2024-03-07T04:35:00;76847.50;;;-145.10;38.36
56334;BME280;42240;53.626;55.886;2024-03-07T04:36:34;77027.44;;;-145.10;37.33
56334;BME280;42240;53.626;55.886;2024-03-07T04:38:09;76954.28;;;-145.10;37.44
56334;BME280;42240;53.626;55.886;2024-03-07T04:39:48;76976.03;;;-145.10;37.02
56334;BME280;42240;53.626;55.886;2024-03-07T04:41:21;76896.94;;;-145.10;37.01
56334;BME280;42240;53.626;55.886;2024-03-07T04:42:55;76916.69;;;-145.10;36.88
56334;BME280;42240;53.626;55.886;2024-03-07T04:44:30;76827.72;;;-145.10;36.38
56334;BME280;42240;53.626;55.886;2024-03-07T04:46:05;76853.41;;;-145.10;35.93
56334;BME280;42240;53.626;55.886;2024-03-07T04:47:43;76780.25;;;-145.10;36.44
56334;BME280;42240;53.626;55.886;2024-03-07T04:49:18;76697.19;;;-145.10;35.96
56334;BME280;42240;53.626;55.886;2024-03-07T04:50:51;76707.09;;;-145.10;35.28
56334;BME280;42240;53.626;55.886;2024-03-07T04:52:28;76703.13;;;-145.10;35.54
56334;BME280;42240;53.626;55.886;2024-03-07T04:54:01;76691.25;;;-145.10;34.80
56334;BME280;42240;53.626;55.886;2024-03-07T04:55:35;76653.69;;;-145.10;34.99
56334;BME280;42240;53.626;55.886;2024-03-07T04:57:09;76635.91;;;-145.10;34.63
56334;BME280;42240;53.626;55.886;2024-03-07T04:58:44;76643.81;;;-145.10;34.60
56334;BME280;42240;53.626;55.886;2024-03-07T05:00:18;76659.63;;;-145.10;34.37
56334;BME280;42240;53.626;55.886;2024-03-07T05:01:56;76649.75;;;-145.10;34.68
56334;BME280;42240;53.626;55.886;2024-03-07T05:03:30;76754.53;;;-145.10;34.27
56334;BME280;42240;53.626;55.886;2024-03-07T05:05:05;76588.44;;;-145.10;34.39
56334;BME280;42240;53.626;55.886;2024-03-07T05:06:42;76669.50;;;-145.10;34.07
56334;BME280;42240;53.626;55.886;2024-03-07T05:08:16;76606.22;;;-145.10;34.06
56334;BME280;42240;53.626;55.886;2024-03-07T05:09:50;76521.22;;;-145.10;33.92
56334;BME280;42240;53.626;55.886;2024-03-07T05:11:24;76517.25;;;-145.10;33.53
56334;BME280;42240;53.626;55.886;2024-03-07T05:13:01;76521.22;;;-145.10;32.99
56334;BME280;42240;53.626;55.886;2024-03-07T05:14:34;76635.91;;;-145.10;33.44
56334;BME280;42240;53.626;55.886;2024-03-07T05:16:08;76689.28;;;-145.10;33.67
56334;BME280;42240;53.626;55.886;2024-03-07T05:17:42;76570.63;;;-145.10;33.52
56334;BME280;42240;53.626;55.886;2024-03-07T05:19:18;76805.97;;;-145.10;34.20
56334;BME280;42240;53.626;55.886;2024-03-07T05:20:54;76861.34;;;-145.10;34.47
56334;BME280;42240;53.626;55.886;2024-03-07T05:22:29;76671.50;;;-145.10;34.56
56334;BME280;42240;53.626;55.886;2024-03-07T05:24:07;76525.16;;;-145.10;33.38
56334;BME280;42240;53.626;55.886;2024-03-07T05:25:41;76568.66;;;-145.10;33.71
56334;BME280;42240;53.626;55.886;2024-03-07T05:27:23;76600.31;;;-145.10;33.22
56334;BME280;42240;53.626;55.886;2024-03-07T05:28:57;76430.25;;;-145.10;33.37
56334;BME280;42240;53.626;55.886;2024-03-07T05:30:31;76481.66;;;-145.10;32.78
56334;BME280;42240;53.626;55.886;2024-03-07T05:33:56;76408.50;;;-145.10;32.67
56334;BME280;42240;53.626;55.886;2024-03-07T05:35:29;76487.59;;;-145.10;32.28
56334;BME280;42240;53.626;55.886;2024-03-07T05:37:03;76446.06;;;-145.10;32.63
56334;BME280;42240;53.626;55.886;2024-03-07T05:38:35;76370.94;;;-145.10;32.09
56334;BME280;42240;53.626;55.886;2024-03-07T05:40:09;76420.38;;;-145.10;32.29
56334;BME280;42240;53.626;55.886;2024-03-07T05:41:44;76406.53;;;-145.10;32.42
56334;BME280;42240;53.626;55.886;2024-03-07T05:43:21;76406.53;;;-145.10;32.27
56334;BME280;42240;53.626;55.886;2024-03-07T05:44:54;76392.69;;;-145.10;31.90
56334;BME280;42240;53.626;55.886;2024-03-07T05:46:28;76438.16;;;-145.10;32.13
56334;BME280;42240;53.626;55.886;2024-03-07T05:48:14;76359.06;;;-145.10;32.13
56334;BME280;42240;53.626;55.886;2024-03-07T05:49:51;76281.97;;;-145.10;32.46
56334;BME280;42240;53.626;55.886;2024-03-07T05:51:25;76285.91;;;-145.10;32.03
56334;BME280;42240;53.626;55.886;2024-03-07T05:52:58;76345.22;;;-145.10;32.27
56334;BME280;42240;53.626;55.886;2024-03-07T05:54:32;76366.97;;;-145.10;31.63
56334;BME280;42240;53.626;55.886;2024-03-07T05:56:06;76299.75;;;-145.10;31.61
56334;BME280;42240;53.626;55.886;2024-03-07T05:57:42;76319.53;;;-145.10;30.92
56334;BME280;42240;53.626;55.886;2024-03-07T05:59:17;76303.69;;;-145.10;31.42
56334;BME280;42240;53.626;55.886;2024-03-07T06:00:51;76461.88;;;-145.10;31.70
56334;BME280;42240;53.626;55.886;2024-03-07T06:02:24;76368.94;;;-145.10;32.14
56334;BME280;42240;53.626;55.886;2024-03-07T06:03:57;76303.69;;;-145.10;32.42
56334;BME280;42240;53.626;55.886;2024-03-07T06:05:31;76343.25;;;-145.10;31.72
56334;BME280;42240;53.626;55.886;2024-03-07T06:07:05;76307.66;;;-145.10;31.76
56334;BME280;42240;53.626;55.886;2024-03-07T06:08:38;76339.28;;;-145.10;31.40
56334;BME280;42240;53.626;55.886;2024-03-07T06:10:15;76422.34;;;-145.10;31.62
56334;BME280;42240;53.626;55.886;2024-03-07T06:11:49;76481.66;;;-145.10;31.70
56334;BME280;42240;53.626;55.886;2024-03-07T06:13:26;76325.44;;;-145.10;31.67
56334;BME280;42240;53.626;55.886;2024-03-07T06:14:59;76414.44;;;-145.10;31.56
56334;BME280;42240;53.626;55.886;2024-03-07T06:16:35;76305.69;;;-145.10;31.54
56334;BME280;42240;53.626;55.886;2024-03-07T06:18:10;76453.97;;;-145.10;31.16
56334;BME280;42240;53.626;55.886;2024-03-07T06:19:52;76331.38;;;-145.10;31.75
56334;BME280;42240;53.626;55.886;2024-03-07T06:21:25;76372.91;;;-145.10;31.41
56334;BME280;42240;53.626;55.886;2024-03-07T06:23:00;76359.06;;;-145.10;31.57
56334;BME280;42240;53.626;55.886;2024-03-07T06:24:35;76390.69;;;-145.10;30.76
56334;BME280;42240;53.626;55.886;2024-03-07T06:26:14;76236.47;;;-145.10;31.19
56334;BME280;42240;53.626;55.886;2024-03-07T06:28:01;76299.75;;;-145.10;30.68
56334;BME280;42240;53.626;55.886;2024-03-07T06:29:42;76258.22;;;-145.10;30.92
56334;BME280;42240;53.626;55.886;2024-03-07T06:31:18;76303.69;;;-145.10;30.33
56334;BME280;42240;53.626;55.886;2024-03-07T06:32:53;76347.19;;;-145.10;30.96
56334;BME280;42240;53.626;55.886;2024-03-07T06:34:26;76461.88;;;-145.10;31.60
56334;BME280;42240;53.626;55.886;2024-03-07T06:36:02;76301.72;;;-145.10;31.40
56334;BME280;42240;53.626;55.886;2024-03-07T06:37:36;76307.66;;;-145.10;31.34
56334;BME280;42240;53.626;55.886;2024-03-07T06:39:08;76365.00;;;-145.10;30.83
56334;BME280;42240;53.626;55.886;2024-03-07T06:40:44;76560.75;;;-145.10;32.03
56334;BME280;42240;53.626;55.886;2024-03-07T06:42:18;76635.91;;;-145.10;32.34
56334;BME280;42240;53.626;55.886;2024-03-07T06:43:51;76713.03;;;-145.10;32.89
56334;BME280;42240;53.626;55.886;2024-03-07T06:45:28;76776.28;;;-145.10;33.33
56334;BME280;42240;53.626;55.886;2024-03-07T06:47:01;76837.59;;;-145.10;33.83
56334;BME280;42240;53.626;55.886;2024-03-07T06:48:36;76920.66;;;-145.10;34.68
56334;BME280;42240;53.626;55.886;2024-03-07T06:50:35;76908.78;;;-145.10;34.82
56334;BME280;42240;53.626;55.886;2024-03-07T06:52:12;76918.69;;;-145.10;34.26
56334;BME280;42240;53.626;55.886;2024-03-07T06:53:51;76774.31;;;-145.10;33.87
56334;BME280;42240;53.626;55.886;2024-03-07T06:55:24;76764.44;;;-145.10;33.96
56334;BME280;42240;53.626;55.886;2024-03-07T06:56:59;76912.75;;;-145.10;33.45
56334;BME280;42240;53.626;55.886;2024-03-07T06:58:33;76849.47;;;-145.10;34.29
56334;BME280;42240;53.626;55.886;2024-03-07T07:00:06;76892.97;;;-145.10;33.88
56334;BME280;42240;53.626;55.886;2024-03-07T07:01:44;76926.59;;;-145.10;34.63
56334;BME280;42240;53.626;55.886;2024-03-07T07:03:18;76948.34;;;-145.10;33.79
56334;BME280;42240;53.626;55.886;2024-03-07T07:05:07;77118.41;;;-145.10;34.83
56334;BME280;42240;53.626;55.886;2024-03-07T07:06:46;77116.44;;;-145.10;34.76
56334;BME280;42240;53.626;55.886;2024-03-07T07:08:20;77268.72;;;-145.10;35.38
56334;BME280;42240;53.626;55.886;2024-03-07T07:09:55;77217.31;;;-145.10;35.69
56334;BME280;42240;53.626;55.886;2024-03-07T07:11:28;77197.53;;;-145.10;35.78
56334;BME280;42240;53.626;55.886;2024-03-07T07:13:08;77248.94;;;-145.10;35.61
56334;BME280;42240;53.626;55.886;2024-03-07T07:14:41;77324.09;;;-145.10;36.30
56334;BME280;42240;53.626;55.886;2024-03-07T07:16:15;77335.97;;;-145.10;36.20
56334;BME280;42240;53.626;55.886;2024-03-07T07:17:52;77403.22;;;-145.10;36.68
56334;BME280;42240;53.626;55.886;2024-03-07T07:19:25;77407.16;;;-145.10;36.86
56334;BME280;42240;53.626;55.886;2024-03-07T07:21:04;77391.34;;;-145.10;36.76
56334;BME280;42240;53.626;55.886;2024-03-07T07:22:40;77399.25;;;-145.10;36.80
56334;BME280;42240;53.626;55.886;2024-03-07T07:24:13;77383.44;;;-145.10;37.35
56334;BME280;42240;53.626;55.886;2024-03-07T07:25:46;77415.06;;;-145.10;37.36
56334;BME280;42240;53.626;55.886;2024-03-07T07:27:20;77391.34;;;-145.10;37.48
56334;BME280;42240;53.626;55.886;2024-03-07T07:28:54;77343.88;;;-145.10;37.52
56334;BME280;42240;53.626;55.886;2024-03-07T07:30:27;77264.75;;;-145.10;37.75
56334;BME280;42240;53.626;55.886;2024-03-07T07:32:01;77292.44;;;-145.10;37.04
56334;BME280;42240;53.626;55.886;2024-03-07T07:33:37;77274.66;;;-145.10;36.55
56334;BME280;42240;53.626;55.886;2024-03-07T07:35:11;77373.53;;;-145.10;37.62
56334;BME280;42240;53.626;55.886;2024-03-07T07:36:45;77381.44;;;-145.10;37.35
56334;BME280;42240;53.626;55.886;2024-03-07T07:38:21;77343.88;;;-145.10;38.00
56334;BME280;42240;53.626;55.886;2024-03-07T07:39:55;77347.81;;;-145.10;37.89
56334;BME280;42240;53.626;55.886;2024-03-07T07:41:28;77464.53;;;-145.10;38.44
56334;BME280;42240;53.626;55.886;2024-03-07T07:43:02;77500.13;;;-145.10;39.12
56334;BME280;42240;53.626;55.886;2024-03-07T07:44:37;77454.63;;;-145.10;38.70
56334;BME280;42240;53.626;55.886;2024-03-07T07:46:14;77371.56;;;-145.10;38.68
56334;BME280;42240;53.626;55.886;2024-03-07T07:47:52;77258.84;;;-145.10;38.57
56334;BME280;42240;53.626;55.886;2024-03-07T07:49:28;77266.75;;;-145.10;38.05
56334;BME280;42240;53.626;55.886;2024-03-07T07:51:01;77213.34;;;-145.10;38.14
56334;BME280;42240;53.626;55.886;2024-03-07T07:52:34;77268.72;;;-145.10;37.35
56334;BME280;42240;53.626;55.886;2024-03-07T08:17:05;77219.28;;;-145.10;37.80
56334;BME280;42240;53.626;55.886;2024-03-07T08:18:39;77217.31;;;-145.10;38.15
56334;BME280;42240;53.626;55.886;2024-03-07T08:20:17;77161.94;;;-145.10;38.00
56334;BME280;42240;53.626;55.886;2024-03-07T08:21:51;77209.38;;;-145.10;38.09
56334;BME280;42240;53.626;55.886;2024-03-07T08:23:24;77181.69;;;-145.10;37.50
56334;BME280;42240;53.626;55.886;2024-03-07T08:24:59;77209.38;;;-145.10;37.93
56334;BME280;42240;53.626;55.886;2024-03-07T08:26:32;77286.53;;;-145.10;37.89
56334;BME280;42240;53.626;55.886;2024-03-07T08:28:05;77248.94;;;-145.10;37.38
56334;BME280;42240;53.626;55.886;2024-03-07T08:29:38;77197.53;;;-145.10;37.41
56334;BME280;42240;53.626;55.886;2024-03-07T08:31:11;77193.56;;;-145.10;37.42